Time;durP1;ratioP1;P1;durP2;ratioP2;P2;SDS_P1;SDS_P2;PMS_P1;PMS_P2;Temp;Humidity;BMP_temperature;BMP_pressure;BME280_temperature;BME280_humidity;BME280_pressure;Samples;Min_cycle;Max_cycle;Signal;HPM_P1;HPM_P2
2021/04/11 00:00:39;;;;;;;16.20;9.67;;;3.60;99.90;;;;;;5047139;28;20238;-69
2021/04/11 00:03:06;;;;;;;16.03;11.17;;;3.60;99.90;;;;;;5044797;28;20223;-68
2021/04/11 00:05:36;;;;;;;15.70;9.70;;;3.60;99.90;;;;;;5045122;28;20208;-68
2021/04/11 00:08:05;;;;;;;11.37;8.60;;;3.60;99.90;;;;;;5047601;28;20207;-68
2021/04/11 00:10:34;;;;;;;11.30;8.67;;;3.60;99.90;;;;;;5046327;28;20840;-68
2021/04/11 00:13:03;;;;;;;12.93;9.07;;;3.60;99.90;;;;;;5046548;28;20731;-69
2021/04/11 00:15:30;;;;;;;13.73;8.53;;;3.60;99.90;;;;;;5047281;28;20223;-68
2021/04/11 00:17:56;;;;;;;13.03;9.53;;;3.70;99.90;;;;;;5048314;28;20203;-68
2021/04/11 00:20:23;;;;;;;14.00;9.20;;;3.60;99.90;;;;;;5045833;28;20219;-69
2021/04/11 00:22:51;;;;;;;18.57;11.10;;;3.70;99.90;;;;;;5046954;28;20281;-68
2021/04/11 00:25:22;;;;;;;18.20;12.57;;;3.70;99.90;;;;;;5046647;28;20207;-68
2021/04/11 00:27:48;;;;;;;17.50;11.33;;;3.70;99.90;;;;;;5047291;28;20597;-69
2021/04/11 00:30:16;;;;;;;18.00;12.10;;;3.70;99.90;;;;;;5047868;28;20196;-69
2021/04/11 00:32:43;;;;;;;16.90;11.67;;;3.70;99.90;;;;;;5045574;28;20203;-68
2021/04/11 00:35:10;;;;;;;17.73;12.87;;;3.70;99.90;;;;;;5045935;28;20539;-69
2021/04/11 00:37:37;;;;;;;20.17;12.63;;;3.70;99.90;;;;;;5046446;28;20202;-68
2021/04/11 00:40:09;;;;;;;21.67;14.17;;;3.80;99.90;;;;;;5046104;28;20207;-70
2021/04/11 00:42:42;;;;;;;21.27;13.97;;;3.80;99.90;;;;;;5043795;28;20211;-67
2021/04/11 00:45:19;;;;;;;22.73;14.53;;;3.80;99.90;;;;;;5046476;28;20226;-70
2021/04/11 00:47:46;;;;;;;23.07;14.00;;;3.80;99.90;;;;;;5045018;28;20582;-70
2021/04/11 00:50:15;;;;;;;21.53;13.43;;;3.80;99.90;;;;;;5046534;28;20202;-68
2021/04/11 00:52:42;;;;;;;22.57;14.47;;;3.80;99.90;;;;;;5046601;28;20207;-68
2021/04/11 00:55:09;;;;;;;23.57;15.50;;;3.80;99.90;;;;;;5046124;28;20196;-67
2021/04/11 00:57:38;;;;;;;25.90;14.57;;;3.80;99.90;;;;;;5046192;28;20246;-67
2021/04/11 01:00:06;;;;;;;23.37;14.17;;;3.80;99.90;;;;;;5044840;28;20234;-65
2021/04/11 01:02:33;;;;;;;28.10;15.13;;;3.80;99.90;;;;;;5046417;28;20196;-66
2021/04/11 01:04:59;;;;;;;25.87;15.23;;;3.80;99.90;;;;;;5044866;28;20202;-65
2021/04/11 01:07:27;;;;;;;21.90;13.87;;;3.80;99.90;;;;;;5034235;28;20199;-66
2021/04/11 01:09:54;;;;;;;21.87;14.80;;;3.80;99.90;;;;;;5043210;28;20207;-67
2021/04/11 01:12:23;;;;;;;24.93;14.17;;;3.80;99.90;;;;;;5045927;28;20207;-66
2021/04/11 01:14:52;;;;;;;21.17;13.40;;;3.90;99.90;;;;;;5045534;28;20256;-69
2021/04/11 01:17:21;;;;;;;24.03;13.80;;;3.90;99.90;;;;;;5045940;28;20706;-65
2021/04/11 01:19:51;;;;;;;20.60;12.53;;;3.90;99.90;;;;;;5045961;28;20222;-66
2021/04/11 01:22:28;;;;;;;19.37;12.70;;;3.90;99.90;;;;;;5047348;28;20191;-66
2021/04/11 01:24:57;;;;;;;18.83;11.80;;;3.90;99.90;;;;;;5042383;28;20203;-68
2021/04/11 01:27:30;;;;;;;22.80;12.70;;;3.90;99.90;;;;;;5045724;28;20676;-66
2021/04/11 01:29:58;;;;;;;20.73;12.17;;;3.90;99.90;;;;;;5045822;28;20199;-66
2021/04/11 01:32:25;;;;;;;21.10;12.00;;;3.90;99.90;;;;;;5046096;28;20204;-67
2021/04/11 01:34:54;;;;;;;18.00;11.63;;;3.90;99.90;;;;;;5045145;28;20214;-67
2021/04/11 01:37:23;;;;;;;18.47;12.93;;;3.80;99.90;;;;;;5045954;28;20199;-69
2021/04/11 01:39:51;;;;;;;21.37;12.33;;;3.80;99.90;;;;;;5046689;28;20207;-67
2021/04/11 01:42:20;;;;;;;19.63;11.40;;;3.80;99.90;;;;;;5045355;28;20203;-66
2021/04/11 01:44:50;;;;;;;19.07;11.90;;;3.90;99.90;;;;;;5042195;28;20200;-66
2021/04/11 01:47:17;;;;;;;15.83;10.67;;;3.90;99.90;;;;;;5046101;28;20564;-67
2021/04/11 01:49:45;;;;;;;17.37;10.00;;;3.90;99.90;;;;;;5045862;28;20207;-67
2021/04/11 01:52:15;;;;;;;15.90;8.73;;;3.80;99.90;;;;;;5045479;28;20688;-67
2021/04/11 01:54:43;;;;;;;11.90;7.13;;;3.80;99.90;;;;;;5044380;28;20225;-66
2021/04/11 01:57:16;;;;;;;11.20;7.00;;;3.80;99.90;;;;;;5045396;28;20200;-70
2021/04/11 01:59:44;;;;;;;11.43;5.63;;;3.80;99.90;;;;;;5044451;28;20238;-67
2021/04/11 02:02:12;;;;;;;12.63;5.57;;;3.80;99.90;;;;;;5045503;28;20199;-68
2021/04/11 02:04:39;;;;;;;7.17;4.70;;;3.80;99.90;;;;;;5046013;28;20227;-67
2021/04/11 02:07:09;;;;;;;10.10;5.40;;;3.80;99.90;;;;;;5044514;28;20868;-67
2021/04/11 02:09:38;;;;;;;8.80;5.47;;;3.80;99.90;;;;;;5044844;28;20201;-67
2021/04/11 02:12:06;;;;;;;7.47;4.67;;;3.80;99.90;;;;;;5046107;28;20289;-67
2021/04/11 02:14:36;;;;;;;6.77;4.67;;;3.80;99.90;;;;;;5045335;28;20192;-67
2021/04/11 02:17:04;;;;;;;5.97;4.40;;;3.80;99.90;;;;;;5045738;28;20196;-66
2021/04/11 02:19:31;;;;;;;7.00;5.13;;;3.80;99.90;;;;;;5045582;28;20196;-65
2021/04/11 02:22:05;;;;;;;7.07;4.20;;;3.70;99.90;;;;;;5045374;28;20203;-65
2021/04/11 02:24:32;;;;;;;7.83;4.23;;;3.70;99.90;;;;;;5042278;28;20219;-66
2021/04/11 02:26:59;;;;;;;9.93;4.13;;;3.70;99.90;;;;;;5045418;28;20223;-65
2021/04/11 02:29:28;;;;;;;10.30;5.20;;;3.80;99.90;;;;;;5045436;28;20254;-66
2021/04/11 02:31:55;;;;;;;6.93;5.00;;;3.80;99.90;;;;;;5045581;28;20206;-67
2021/04/11 02:34:24;;;;;;;7.60;3.97;;;3.80;99.90;;;;;;5044657;28;20924;-68
2021/04/11 02:36:57;;;;;;;9.43;3.70;;;3.80;99.90;;;;;;5030179;28;20200;-66
2021/04/11 02:39:26;;;;;;;6.67;3.77;;;3.80;99.90;;;;;;5029890;28;20189;-68
2021/04/11 02:41:54;;;;;;;12.30;4.10;;;3.80;99.90;;;;;;5047184;28;20226;-66
2021/04/11 02:44:20;;;;;;;14.80;3.87;;;3.80;99.90;;;;;;5047145;28;20219;-67
2021/04/11 02:46:48;;;;;;;7.67;4.10;;;3.80;99.90;;;;;;5047234;28;20207;-67
2021/04/11 02:49:21;;;;;;;5.07;3.33;;;3.80;99.90;;;;;;5049727;28;20195;-67
2021/04/11 02:51:49;;;;;;;6.70;3.87;;;3.80;99.90;;;;;;5046932;28;20241;-67
2021/04/11 02:54:19;;;;;;;10.97;4.10;;;3.80;99.90;;;;;;5047899;28;20198;-67
2021/04/11 02:56:46;;;;;;;9.23;3.80;;;3.80;99.90;;;;;;5049689;28;20200;-67
2021/04/11 02:59:15;;;;;;;9.30;3.50;;;3.80;99.90;;;;;;5046666;28;20240;-68
2021/04/11 03:01:44;;;;;;;6.37;3.33;;;3.80;99.90;;;;;;5049939;28;20196;-67
2021/04/11 03:04:14;;;;;;;5.50;3.20;;;3.70;99.90;;;;;;5047460;28;20219;-67
2021/04/11 03:06:45;;;;;;;4.97;3.13;;;3.70;99.90;;;;;;5067946;28;20599;-70
2021/04/11 03:09:18;;;;;;;4.97;2.90;;;3.70;99.90;;;;;;5050984;28;20202;-69
2021/04/11 03:11:48;;;;;;;4.63;2.70;;;3.60;99.90;;;;;;5048337;28;20254;-67
2021/04/11 03:14:18;;;;;;;6.37;2.70;;;3.70;99.90;;;;;;5048620;28;20200;-65
2021/04/11 03:16:45;;;;;;;6.63;2.37;;;3.70;99.90;;;;;;5049421;28;20203;-69
2021/04/11 03:19:14;;;;;;;7.17;2.70;;;3.60;99.90;;;;;;5049229;28;20213;-66
2021/04/11 03:21:42;;;;;;;7.43;2.70;;;3.60;99.90;;;;;;5046119;28;20599;-66
2021/04/11 03:24:09;;;;;;;3.53;2.03;;;3.60;99.90;;;;;;5046815;28;20221;-70
2021/04/11 03:26:41;;;;;;;5.97;2.20;;;3.70;99.90;;;;;;5047827;28;20195;-69
2021/04/11 03:29:15;;;;;;;8.23;2.90;;;3.70;99.90;;;;;;5049042;28;20184;-67
2021/04/11 03:31:46;;;;;;;5.70;2.27;;;3.70;99.90;;;;;;5047048;28;20214;-66
2021/04/11 03:34:16;;;;;;;5.60;2.67;;;3.70;99.90;;;;;;5046913;28;20206;-66
2021/04/11 03:36:44;;;;;;;7.47;2.40;;;3.70;99.90;;;;;;5049110;28;20203;-68
2021/04/11 03:39:12;;;;;;;5.87;2.57;;;3.80;99.90;;;;;;5049214;28;20218;-68
2021/04/11 03:41:42;;;;;;;4.17;2.30;;;3.80;99.90;;;;;;5051438;28;20192;-67
2021/04/11 03:44:12;;;;;;;7.57;2.60;;;3.80;99.90;;;;;;5056143;28;20218;-66
2021/04/11 03:46:45;;;;;;;9.87;2.50;;;3.90;99.90;;;;;;5048160;28;20192;-67
2021/04/11 03:49:19;;;;;;;8.93;2.67;;;3.90;99.90;;;;;;5041568;28;20195;-69
2021/04/11 03:51:47;;;;;;;7.67;2.70;;;3.90;99.90;;;;;;5047259;28;20204;-69
2021/04/11 03:54:17;;;;;;;5.60;3.00;;;4.00;99.90;;;;;;5047439;28;20211;-67
2021/04/11 03:56:53;;;;;;;8.73;2.83;;;3.90;99.90;;;;;;5045446;28;20203;-70
2021/04/11 03:59:24;;;;;;;4.27;2.60;;;3.90;99.90;;;;;;5041782;28;20331;-68
2021/04/11 04:01:54;;;;;;;5.93;2.70;;;3.90;99.90;;;;;;5047725;28;20244;-67
2021/04/11 04:04:24;;;;;;;3.70;2.43;;;3.90;99.90;;;;;;5047210;28;20269;-67
2021/04/11 04:07:11;;;;;;;3.53;2.30;;;3.90;99.90;;;;;;5045774;28;20610;-69
2021/04/11 04:09:39;;;;;;;7.73;2.13;;;3.80;99.90;;;;;;5046613;28;20200;-70
2021/04/11 04:12:23;;;;;;;6.33;2.43;;;3.80;99.90;;;;;;5046259;28;20196;-68
2021/04/11 04:15:01;;;;;;;8.87;2.77;;;3.80;99.90;;;;;;5037764;28;20226;-66
2021/04/11 04:17:36;;;;;;;7.10;2.30;;;3.80;99.90;;;;;;5028731;28;20191;-67
2021/04/11 04:20:11;;;;;;;6.67;2.30;;;3.90;99.90;;;;;;5047544;28;20191;-68
2021/04/11 04:22:54;;;;;;;2.50;2.03;;;3.90;99.90;;;;;;5042022;28;20188;-69
2021/04/11 04:25:40;;;;;;;8.77;2.30;;;3.80;99.90;;;;;;5045323;28;20199;-69
2021/04/11 04:28:30;;;;;;;6.27;2.10;;;3.80;99.90;;;;;;5044734;28;20196;-69
2021/04/11 04:31:01;;;;;;;6.70;2.03;;;3.80;99.90;;;;;;5043982;28;20207;-68
2021/04/11 04:33:54;;;;;;;8.57;2.20;;;3.80;99.90;;;;;;5045290;28;20191;-68
2021/04/11 04:36:34;;;;;;;10.10;2.30;;;3.90;99.90;;;;;;5047964;28;20235;-67
2021/04/11 04:39:11;;;;;;;9.33;2.40;;;3.90;99.90;;;;;;5045392;28;20192;-69
2021/04/11 04:41:41;;;;;;;8.00;2.40;;;3.90;99.90;;;;;;5045838;28;20665;-68
2021/04/11 04:44:21;;;;;;;5.73;2.07;;;4.00;99.90;;;;;;5043526;28;20214;-69
2021/04/11 04:46:54;;;;;;;4.80;2.20;;;4.00;99.90;;;;;;5039788;28;20191;-69
2021/04/11 04:49:25;;;;;;;7.17;1.93;;;4.00;99.90;;;;;;5047899;28;20191;-68
2021/04/11 04:51:56;;;;;;;6.80;1.90;;;4.00;99.90;;;;;;5047018;28;20191;-68
2021/04/11 04:54:31;;;;;;;5.23;2.10;;;4.00;99.90;;;;;;5044786;28;20561;-67
2021/04/11 04:57:03;;;;;;;5.00;2.07;;;4.00;99.90;;;;;;5044817;28;20194;-68
2021/04/11 04:59:40;;;;;;;7.87;1.87;;;4.00;99.90;;;;;;5042618;28;20228;-69
2021/04/11 05:02:10;;;;;;;6.87;2.10;;;4.00;99.90;;;;;;5041559;28;20290;-68
2021/04/11 05:04:41;;;;;;;9.63;2.37;;;4.00;99.90;;;;;;5037809;28;20213;-66
2021/04/11 05:07:13;;;;;;;9.73;2.20;;;4.00;99.90;;;;;;5043675;28;20282;-68
2021/04/11 05:09:46;;;;;;;5.70;2.20;;;4.00;99.90;;;;;;5047754;28;20200;-68
2021/04/11 05:12:20;;;;;;;7.90;2.20;;;3.90;99.90;;;;;;5040652;28;20751;-69
2021/04/11 05:14:55;;;;;;;3.13;2.00;;;3.90;99.90;;;;;;5047587;28;20195;-69
2021/04/11 05:17:26;;;;;;;4.53;2.73;;;4.00;99.90;;;;;;5041154;28;20238;-69
2021/04/11 05:19:57;;;;;;;5.67;2.33;;;4.00;99.90;;;;;;5043048;28;20196;-68
2021/04/11 05:22:31;;;;;;;5.00;2.10;;;4.00;99.90;;;;;;5043482;28;20662;-69
2021/04/11 05:25:04;;;;;;;7.00;2.73;;;4.00;99.90;;;;;;5046355;28;20270;-69
2021/04/11 05:27:38;;;;;;;3.63;2.40;;;4.00;99.90;;;;;;5044830;28;20746;-69
2021/04/11 05:30:10;;;;;;;5.43;1.77;;;4.00;99.90;;;;;;5045959;28;20227;-68
2021/04/11 05:32:38;;;;;;;8.70;2.23;;;4.00;99.90;;;;;;5046236;28;20250;-69
2021/04/11 05:35:05;;;;;;;9.80;2.20;;;4.00;99.90;;;;;;5044617;28;20203;-67
2021/04/11 05:37:40;;;;;;;5.20;2.10;;;4.00;99.90;;;;;;5044483;28;20199;-67
2021/04/11 05:40:13;;;;;;;9.70;2.07;;;4.00;99.90;;;;;;5032234;28;21135;-67
2021/04/11 05:42:49;;;;;;;4.93;1.63;;;4.00;99.90;;;;;;5045046;28;20196;-68
2021/04/11 05:45:21;;;;;;;2.97;2.20;;;4.10;99.90;;;;;;5044098;28;20187;-68
2021/04/11 05:47:59;;;;;;;8.00;2.50;;;4.10;99.90;;;;;;5041953;28;20241;-67
2021/04/11 05:50:31;;;;;;;4.50;1.87;;;4.10;99.90;;;;;;5045629;28;20191;-68
2021/04/11 05:53:01;;;;;;;5.63;2.10;;;4.20;99.90;;;;;;5038158;28;20277;-68
2021/04/11 05:55:32;;;;;;;10.07;2.40;;;4.20;99.90;;;;;;5044850;28;20682;-68
2021/04/11 05:58:02;;;;;;;7.40;1.80;;;4.20;99.90;;;;;;5042230;28;20195;-69
2021/04/11 06:00:35;;;;;;;3.90;1.67;;;4.20;99.90;;;;;;5044987;28;20223;-68
2021/04/11 06:03:05;;;;;;;5.80;1.67;;;4.10;99.90;;;;;;5044048;28;20195;-67
2021/04/11 06:05:35;;;;;;;5.43;1.90;;;4.20;99.90;;;;;;5043772;28;20699;-68
2021/04/11 06:08:09;;;;;;;8.00;2.10;;;4.20;99.90;;;;;;5045621;28;20195;-67
2021/04/11 06:10:42;;;;;;;5.57;2.30;;;4.30;99.90;;;;;;5049324;28;20194;-67
2021/04/11 06:13:15;;;;;;;5.67;2.07;;;4.50;99.90;;;;;;5046748;28;20200;-69
2021/04/11 06:15:46;;;;;;;6.40;2.10;;;4.60;99.90;;;;;;5051069;28;20249;-67
2021/04/11 06:18:13;;;;;;;8.37;2.00;;;4.70;99.90;;;;;;5044510;28;20200;-68
2021/04/11 06:20:41;;;;;;;4.80;1.63;;;4.70;99.90;;;;;;5047589;28;20604;-67
2021/04/11 06:23:18;;;;;;;3.97;1.83;;;4.80;99.90;;;;;;5050784;28;20310;-66
2021/04/11 06:25:50;;;;;;;3.40;1.70;;;4.90;99.90;;;;;;5042301;28;20599;-67
2021/04/11 06:28:21;;;;;;;4.40;1.93;;;5.00;99.90;;;;;;5050271;28;20191;-68
2021/04/11 06:30:57;;;;;;;4.70;1.87;;;5.00;99.90;;;;;;5063106;28;20191;-68
2021/04/11 06:33:26;;;;;;;5.00;1.57;;;5.10;99.90;;;;;;5060235;28;20198;-66
2021/04/11 06:35:57;;;;;;;7.87;1.50;;;5.20;99.90;;;;;;5060622;28;20264;-66
2021/04/11 06:38:27;;;;;;;3.00;1.47;;;5.10;99.90;;;;;;5054268;28;20188;-67
2021/04/11 06:41:10;;;;;;;3.57;1.47;;;5.10;99.90;;;;;;5052638;28;20192;-66
2021/04/11 06:44:03;;;;;;;2.97;2.03;;;5.60;99.90;;;;;;5052976;28;20215;-69
2021/04/11 06:46:37;;;;;;;6.40;2.23;;;6.20;99.90;;;;;;5050157;28;20855;-66
2021/04/11 06:49:25;;;;;;;3.43;1.67;;;6.90;99.90;;;;;;5060930;28;20219;-66
2021/04/11 06:52:19;;;;;;;3.47;1.60;;;7.60;99.90;;;;;;5046112;28;20195;-65
2021/04/11 06:55:32;;;;;;;3.47;1.53;;;8.30;99.90;;;;;;5047874;28;20326;-67
2021/04/11 06:58:10;;;;;;;3.37;1.20;;;8.70;99.90;;;;;;5048897;28;20203;-66
2021/04/11 07:01:07;;;;;;;4.03;1.33;;;9.10;99.90;;;;;;5048747;28;20314;-64
2021/04/11 07:04:09;;;;;;;4.90;1.43;;;9.00;99.90;;;;;;5048192;28;20219;-65
2021/04/11 07:07:18;;;;;;;4.70;1.03;;;9.00;99.90;;;;;;5046857;28;20196;-66
2021/04/11 07:09:50;;;;;;;2.10;1.23;;;9.00;99.90;;;;;;5030115;28;20810;-66
2021/04/11 07:13:06;;;;;;;3.17;1.10;;;9.10;99.90;;;;;;5045877;28;20550;-66
2021/04/11 07:15:49;;;;;;;5.47;1.23;;;9.50;99.90;;;;;;5048958;28;20197;-64
2021/04/11 07:18:48;;;;;;;1.93;1.17;;;9.80;99.90;;;;;;5047934;28;20196;-65
2021/04/11 07:21:50;;;;;;;5.07;1.20;;;9.10;99.90;;;;;;5044751;28;20203;-66
2021/04/11 07:24:43;;;;;;;4.47;1.23;;;8.70;99.90;;;;;;5044925;28;20272;-65
2021/04/11 07:27:19;;;;;;;4.17;1.20;;;8.80;99.90;;;;;;5049415;28;20912;-65
2021/04/11 07:30:21;;;;;;;6.23;1.53;;;8.90;99.90;;;;;;5047672;28;20706;-64
2021/04/11 07:33:14;;;;;;;9.03;1.20;;;9.30;99.90;;;;;;5049236;28;20184;-63
2021/04/11 07:35:57;;;;;;;2.47;1.00;;;9.10;99.90;;;;;;5060118;28;20282;-63
2021/04/11 07:39:06;;;;;;;5.80;1.40;;;9.50;99.90;;;;;;5054034;28;20209;-62
2021/04/11 07:41:42;;;;;;;2.47;1.00;;;10.10;99.90;;;;;;5032107;28;20192;-64
2021/04/11 07:44:29;;;;;;;4.53;1.37;;;10.30;99.90;;;;;;5051917;28;20692;-63
2021/04/11 07:47:14;;;;;;;3.03;1.30;;;10.60;99.90;;;;;;5052346;28;20249;-63
2021/04/11 07:50:02;;;;;;;3.57;1.00;;;10.10;99.90;;;;;;5050745;28;20202;-65
2021/04/11 07:52:53;;;;;;;4.57;1.10;;;9.70;99.90;;;;;;5054034;28;20200;-62
2021/04/11 07:55:27;;;;;;;1.23;0.93;;;10.40;99.90;;;;;;5028980;28;20214;-63
2021/04/11 07:58:36;;;;;;;4.73;1.37;;;10.60;99.90;;;;;;5053529;28;20202;-63
2021/04/11 08:01:26;;;;;;;1.87;1.00;;;9.80;99.90;;;;;;5052272;28;20253;-67
2021/04/11 08:04:25;;;;;;;4.13;1.20;;;9.00;99.90;;;;;;5036048;28;20231;-64
2021/04/11 08:07:18;;;;;;;5.57;1.37;;;8.20;99.90;;;;;;5016116;28;20211;-65
2021/04/11 08:09:51;;;;;;;2.93;1.10;;;7.70;99.90;;;;;;5043920;28;20677;-66
2021/04/11 08:12:53;;;;;;;3.07;1.23;;;7.50;99.90;;;;;;5051283;28;20219;-63
2021/04/11 08:15:29;;;;;;;2.73;1.20;;;7.30;99.90;;;;;;5040922;28;20202;-67
2021/04/11 08:18:17;;;;;;;4.73;1.17;;;7.30;99.90;;;;;;5052085;28;20230;-67
2021/04/11 08:20:58;;;;;;;2.17;1.07;;;7.30;99.90;;;;;;4989938;28;20212;-67
2021/04/11 08:23:49;;;;;;;3.33;1.50;;;7.30;99.90;;;;;;5040664;28;20211;-71
2021/04/11 08:26:36;;;;;;;4.23;1.30;;;7.30;99.90;;;;;;5050810;28;20195;-64
2021/04/11 08:29:21;;;;;;;3.00;1.53;;;7.10;99.90;;;;;;5049336;28;20195;-63
2021/04/11 08:32:23;;;;;;;3.50;1.10;;;7.00;99.90;;;;;;5050205;28;20557;-63
2021/04/11 08:35:15;;;;;;;2.77;1.33;;;7.20;99.90;;;;;;5052784;28;20213;-66
2021/04/11 08:38:33;;;;;;;2.50;1.37;;;7.60;99.90;;;;;;5052596;28;20648;-68
2021/04/11 08:41:38;;;;;;;3.13;1.17;;;8.40;99.90;;;;;;4991380;28;20342;-69
2021/04/11 08:44:14;;;;;;;4.20;1.23;;;9.20;99.90;;;;;;4991391;28;20316;-68
2021/04/11 08:46:53;;;;;;;3.73;1.33;;;9.10;99.90;;;;;;4971892;28;20198;-69
2021/04/11 08:49:25;;;;;;;3.70;1.40;;;8.60;99.90;;;;;;4986008;28;20674;-64
2021/04/11 08:52:01;;;;;;;4.27;1.30;;;8.20;99.90;;;;;;4991056;28;20198;-66
2021/04/11 08:54:47;;;;;;;1.90;1.33;;;8.10;99.90;;;;;;4985169;28;20198;-64
2021/04/11 08:57:25;;;;;;;1.30;1.20;;;8.40;99.90;;;;;;4971637;28;20190;-65
2021/04/11 08:59:55;;;;;;;3.57;1.40;;;9.20;99.90;;;;;;4971522;28;20229;-66
2021/04/11 09:02:39;;;;;;;3.63;1.70;;;10.00;99.90;;;;;;4982262;28;20220;-69
2021/04/11 09:05:18;;;;;;;2.87;1.13;;;10.80;99.90;;;;;;4971350;28;20225;-66
2021/04/11 09:08:06;;;;;;;1.70;0.97;;;11.90;99.90;;;;;;4975557;28;20201;-66
2021/04/11 09:10:55;;;;;;;4.30;1.10;;;13.20;99.90;;;;;;4985042;28;20216;-68
2021/04/11 09:13:34;;;;;;;4.47;1.30;;;13.50;99.90;;;;;;5047749;28;20203;-64
2021/04/11 09:16:06;;;;;;;2.77;1.40;;;13.10;99.90;;;;;;5046563;28;20207;-66
2021/04/11 09:18:49;;;;;;;3.73;1.30;;;12.40;99.90;;;;;;5047632;28;20203;-68
2021/04/11 09:21:38;;;;;;;4.30;1.77;;;12.20;99.90;;;;;;5053130;28;20203;-69
2021/04/11 09:24:08;;;;;;;5.17;1.40;;;12.90;99.90;;;;;;5045023;28;20688;-66
2021/04/11 09:27:01;;;;;;;4.30;1.50;;;13.70;99.90;;;;;;5046514;28;20209;-68
2021/04/11 09:29:35;;;;;;;1.47;0.80;;;13.90;99.90;;;;;;5037240;28;20207;-66
2021/04/11 09:32:27;;;;;;;2.83;1.20;;;13.40;99.90;;;;;;5046598;28;20203;-67
2021/04/11 09:35:14;;;;;;;2.83;1.00;;;13.00;99.90;;;;;;5052804;28;20229;-67
2021/04/11 09:38:08;;;;;;;2.83;1.10;;;12.20;99.90;;;;;;5050916;28;20207;-67
2021/04/11 09:41:06;;;;;;;3.10;1.30;;;11.40;99.90;;;;;;5059196;28;20202;-66
2021/04/11 09:43:58;;;;;;;3.90;1.00;;;10.70;99.90;;;;;;5049195;28;20222;-71
2021/04/11 09:46:53;;;;;;;3.03;1.20;;;10.30;99.90;;;;;;5059137;28;20258;-68
2021/04/11 09:49:40;;;;;;;1.83;1.10;;;10.10;99.90;;;;;;5055045;28;20203;-71
2021/04/11 09:52:34;;;;;;;1.33;1.10;;;9.90;99.90;;;;;;5056848;28;20611;-68
2021/04/11 09:55:12;;;;;;;2.10;1.13;;;9.80;99.90;;;;;;5053781;28;20214;-68
2021/04/11 09:57:51;;;;;;;4.07;1.20;;;9.90;99.90;;;;;;5058716;28;20253;-69
2021/04/11 10:00:24;;;;;;;3.37;1.40;;;10.30;99.90;;;;;;5052318;28;20709;-69
2021/04/11 10:03:27;;;;;;;3.80;1.40;;;10.30;99.90;;;;;;5043875;28;20195;-68
2021/04/11 10:06:07;;;;;;;5.10;1.60;;;10.10;99.90;;;;;;5058557;28;20194;-68
2021/04/11 10:08:43;;;;;;;2.60;1.07;;;9.90;99.90;;;;;;5056392;28;20560;-68
2021/04/11 10:11:23;;;;;;;4.00;1.70;;;11.20;99.90;;;;;;5058591;28;20187;-68
2021/04/11 10:14:06;;;;;;;2.03;1.33;;;12.60;99.90;;;;;;5055220;28;20560;-68
2021/04/11 10:16:43;;;;;;;1.33;0.90;;;12.90;99.90;;;;;;5056978;28;20213;-68
2021/04/11 10:19:30;;;;;;;3.13;1.13;;;13.40;99.90;;;;;;5056387;28;20199;-66
2021/04/11 10:22:33;;;;;;;3.83;1.33;;;14.00;99.90;;;;;;5057110;28;20657;-67
2021/04/11 10:25:09;;;;;;;3.57;1.27;;;14.70;99.90;;;;;;5058449;28;20218;-67
2021/04/11 10:27:40;;;;;;;3.17;1.20;;;15.30;99.90;;;;;;5056056;28;20191;-68
2021/04/11 10:30:10;;;;;;;3.83;1.20;;;15.70;99.90;;;;;;5057317;28;20195;-68
2021/04/11 10:32:43;;;;;;;3.80;1.47;;;16.10;99.90;;;;;;5055364;28;20203;-67
2021/04/11 10:35:15;;;;;;;2.93;1.10;;;15.80;99.90;;;;;;5057267;28;20219;-67
2021/04/11 10:37:44;;;;;;;3.63;0.90;;;14.90;99.90;;;;;;5056934;28;20203;-69
2021/04/11 10:40:33;;;;;;;3.87;1.30;;;13.30;99.90;;;;;;5056091;28;20252;-69
2021/04/11 10:43:11;;;;;;;2.03;0.97;;;12.10;99.90;;;;;;5056106;28;20530;-67
2021/04/11 10:45:44;;;;;;;3.83;1.07;;;11.20;99.90;;;;;;5038159;28;20589;-69
2021/04/11 10:48:38;;;;;;;3.27;1.20;;;10.90;99.90;;;;;;5041382;28;20257;-68
2021/04/11 10:51:40;;;;;;;5.63;1.90;;;11.00;99.90;;;;;;5055272;28;20204;-67
2021/04/11 10:54:28;;;;;;;6.37;1.27;;;10.80;99.90;;;;;;5058021;28;20270;-67
2021/04/11 10:57:18;;;;;;;2.03;1.00;;;11.70;99.90;;;;;;5055955;28;20217;-67
2021/04/11 11:00:08;;;;;;;1.93;1.00;;;12.70;99.90;;;;;;5050938;28;20253;-68
2021/04/11 11:03:26;;;;;;;2.37;1.00;;;13.60;99.90;;;;;;5054970;28;20601;-67
2021/04/11 11:06:17;;;;;;;4.97;1.13;;;13.90;99.90;;;;;;5034961;28;20262;-67
2021/04/11 11:09:02;;;;;;;3.83;1.20;;;14.90;99.90;;;;;;5052869;28;20257;-67
2021/04/11 11:11:52;;;;;;;2.90;0.97;;;15.50;99.90;;;;;;5054427;28;20198;-67
2021/04/11 11:14:49;;;;;;;4.10;1.20;;;15.60;99.90;;;;;;5050528;28;20203;-67
2021/04/11 11:17:40;;;;;;;2.20;0.97;;;14.50;99.90;;;;;;5045977;28;20627;-67
2021/04/11 11:20:17;;;;;;;3.07;1.13;;;13.10;99.90;;;;;;5049754;28;20201;-66
2021/04/11 11:23:13;;;;;;;5.67;0.80;;;12.00;99.90;;;;;;5053195;28;20203;-66
2021/04/11 11:25:52;;;;;;;4.13;1.87;;;11.90;99.90;;;;;;5038083;28;20243;-68
2021/04/11 11:28:54;;;;;;;2.60;0.93;;;13.10;99.90;;;;;;5053006;28;20698;-67
2021/04/11 11:31:31;;;;;;;2.23;1.37;;;13.90;99.90;;;;;;5034544;28;20251;-66
2021/04/11 11:34:14;;;;;;;2.03;1.10;;;14.60;99.90;;;;;;5043582;28;20238;-66
2021/04/11 11:36:47;;;;;;;2.03;1.10;;;15.10;99.90;;;;;;5035127;28;20192;-66
2021/04/11 11:39:27;;;;;;;5.20;1.80;;;15.60;99.90;;;;;;5052892;28;20730;-67
2021/04/11 11:42:00;;;;;;;2.83;1.27;;;15.30;99.90;;;;;;5052115;28;20207;-67
2021/04/11 11:44:30;;;;;;;2.13;0.90;;;15.20;99.90;;;;;;5045090;28;20212;-67
2021/04/11 11:47:03;;;;;;;2.40;1.00;;;15.10;99.90;;;;;;5050255;28;20668;-66
2021/04/11 11:49:42;;;;;;;3.30;0.93;;;15.10;99.90;;;;;;5049694;28;20706;-67
2021/04/11 11:52:14;;;;;;;3.17;1.10;;;15.60;99.90;;;;;;5041917;28;20246;-67
2021/04/11 11:54:45;;;;;;;3.17;1.17;;;15.10;99.90;;;;;;5048900;28;20195;-67
2021/04/11 11:57:25;;;;;;;3.37;1.10;;;13.90;99.90;;;;;;5048390;28;20586;-66
2021/04/11 12:00:07;;;;;;;3.27;1.20;;;12.50;99.90;;;;;;5051213;28;20238;-66
2021/04/11 12:03:11;;;;;;;1.33;1.00;;;12.10;99.90;;;;;;5049734;28;20609;-67
2021/04/11 12:05:47;;;;;;;1.37;0.83;;;13.40;99.90;;;;;;5030014;28;20219;-67
2021/04/11 12:08:26;;;;;;;3.50;1.23;;;14.10;99.90;;;;;;5051047;28;20210;-67
2021/04/11 12:11:01;;;;;;;2.77;0.90;;;14.90;99.90;;;;;;5052988;28;20196;-67
2021/04/11 12:13:35;;;;;;;4.03;1.03;;;15.90;99.90;;;;;;5052195;28;20199;-67
2021/04/11 12:16:07;;;;;;;1.77;0.73;;;15.60;99.90;;;;;;5050253;28;20286;-66
2021/04/11 12:18:41;;;;;;;5.90;1.47;;;14.50;99.90;;;;;;5045362;28;20201;-69
2021/04/11 12:21:15;;;;;;;2.27;0.97;;;13.50;99.90;;;;;;5050443;28;20198;-67
2021/04/11 12:23:46;;;;;;;2.23;1.20;;;13.00;99.90;;;;;;5045453;28;20282;-66
2021/04/11 12:26:17;;;;;;;2.83;0.97;;;12.10;99.90;;;;;;5051712;28;20203;-66
2021/04/11 12:28:46;;;;;;;1.93;1.03;;;11.40;99.90;;;;;;5052506;28;20241;-67
2021/04/11 12:31:25;;;;;;;2.70;1.10;;;11.00;99.90;;;;;;5052671;28;20207;-68
2021/04/11 12:34:01;;;;;;;4.83;1.40;;;10.60;99.90;;;;;;5052113;28;20202;-67
2021/04/11 12:36:40;;;;;;;4.00;1.07;;;11.60;99.90;;;;;;5049403;28;20649;-67
2021/04/11 12:39:11;;;;;;;3.67;1.17;;;11.70;99.90;;;;;;5051852;28;20214;-67
2021/04/11 12:41:44;;;;;;;2.30;1.30;;;11.40;99.90;;;;;;5032673;28;20246;-68
2021/04/11 12:44:18;;;;;;;2.80;1.00;;;11.50;99.90;;;;;;5057692;28;20750;-66
2021/04/11 12:46:57;;;;;;;1.63;0.77;;;11.70;99.90;;;;;;5052565;28;20636;-66
2021/04/11 12:49:29;;;;;;;2.57;1.33;;;10.80;99.90;;;;;;5050154;28;20230;-68
2021/04/11 12:52:03;;;;;;;2.10;1.17;;;11.00;99.90;;;;;;5050995;28;20199;-67
2021/04/11 12:54:35;;;;;;;2.77;1.10;;;11.70;99.90;;;;;;5050803;28;20269;-68
2021/04/11 12:57:04;;;;;;;2.57;1.17;;;11.60;99.90;;;;;;5051875;28;20192;-67
2021/04/11 12:59:38;;;;;;;2.50;1.37;;;11.10;99.90;;;;;;5047502;28;20239;-66
2021/04/11 13:02:15;;;;;;;3.60;1.17;;;10.70;99.90;;;;;;5042240;28;20207;-66
2021/04/11 13:04:47;;;;;;;4.10;1.10;;;10.50;99.90;;;;;;5044114;28;20260;-67
2021/04/11 13:07:19;;;;;;;2.67;1.20;;;10.70;99.90;;;;;;5049659;28;20688;-66
2021/04/11 13:10:02;;;;;;;1.50;0.70;;;11.30;99.90;;;;;;5044439;28;20287;-65
2021/04/11 13:12:39;;;;;;;1.20;0.87;;;12.50;99.90;;;;;;5048735;28;20202;-66
2021/04/11 13:15:18;;;;;;;4.13;0.70;;;13.40;99.90;;;;;;5047120;28;20249;-65
2021/04/11 13:17:51;;;;;;;2.30;0.83;;;13.70;99.90;;;;;;5035722;28;20677;-67
2021/04/11 13:20:22;;;;;;;3.10;0.90;;;13.20;99.90;;;;;;5049288;28;20204;-67
2021/04/11 13:22:57;;;;;;;2.73;0.80;;;13.60;99.90;;;;;;5041756;28;20692;-60
2021/04/11 13:25:33;;;;;;;1.00;0.70;;;13.80;99.90;;;;;;5045202;28;20234;-67
2021/04/11 13:28:07;;;;;;;2.07;0.50;;;13.20;99.90;;;;;;5045716;28;20213;-66
2021/04/11 13:30:38;;;;;;;2.63;0.70;;;13.10;99.90;;;;;;5045500;28;20219;-68
2021/04/11 13:33:14;;;;;;;2.40;0.97;;;12.90;99.90;;;;;;5043105;28;20203;-67
2021/04/11 13:35:45;;;;;;;3.37;1.07;;;13.20;99.90;;;;;;5044854;28;20211;-66
2021/04/11 13:38:19;;;;;;;2.00;0.70;;;13.70;99.90;;;;;;5044776;28;20199;-70
2021/04/11 13:40:47;;;;;;;2.67;0.80;;;13.70;99.90;;;;;;5043426;28;20605;-67